San Francisco, California
Current Conditions -  °F | °C
As of 11:56 PM on Friday 24 Oct 2014 (Local Time) from KSFO Reporting Station
Broken Clouds Broken Clouds  
Wind Chill: 21°   Ceiling: 4400
Heat Index: 21°   Visibility: 10mi
Dew Point: 13°   Wind: 13mph
Humidity: 61%   Direction: 160°SSE
Pressure: 29.92"   Gusts: NA
Location:  37.78°N, 122.42°W
Report Text: KSFO 250656Z 16011KT 10SM FEW025 BKN044 BKN170 21/13 A2992 RMK AO2 SLP133 T02060128 $
Loading
Personal Weather Stations






























Interactive Weather Map New forecast layout! Learn more

10-Day Weather Forecast

Advertisements
Track Severe Weather on mobile